Time;durP1;ratioP1;P1;durP2;ratioP2;P2;SDS_P1;SDS_P2;PMS_P1;PMS_P2;Temp;Humidity;BMP_temperature;BMP_pressure;BME280_temperature;BME280_humidity;BME280_pressure;Samples;Min_cycle;Max_cycle;Signal;HPM_P1;HPM_P2
2021/08/26 00:00:54;;;;;;;4.28;2.95;;;14.20;99.90;;;;;;5052308;28;20122;-74
2021/08/26 00:06:06;;;;;;;4.15;3.60;;;14.20;99.90;;;;;;5052766;28;20504;-74
2021/08/26 00:08:32;;;;;;;16.20;9.57;;;14.30;99.90;;;;;;5052426;28;20049;-72
2021/08/26 00:11:00;;;;;;;9.65;5.95;;;14.30;99.90;;;;;;5051484;28;20053;-73
2021/08/26 00:13:27;;;;;;;9.10;4.38;;;14.20;99.90;;;;;;5052099;28;20045;-72
2021/08/26 00:15:56;;;;;;;8.98;4.88;;;14.20;99.90;;;;;;5051165;28;20493;-73
2021/08/26 00:18:23;;;;;;;9.43;5.40;;;14.10;99.90;;;;;;5051756;28;20140;-74
2021/08/26 00:20:52;;;;;;;9.63;4.65;;;14.20;99.90;;;;;;5048504;28;20099;-74
2021/08/26 00:23:21;;;;;;;6.82;3.75;;;14.20;99.90;;;;;;5051727;28;20502;-73
2021/08/26 00:25:47;;;;;;;8.45;4.88;;;14.30;99.90;;;;;;5051031;28;20405;-73
2021/08/26 00:28:14;;;;;;;8.68;5.03;;;14.30;99.90;;;;;;5051410;28;20111;-73
2021/08/26 00:30:41;;;;;;;13.52;6.57;;;14.30;99.90;;;;;;5051347;28;20045;-75
2021/08/26 00:33:08;;;;;;;6.13;3.30;;;14.30;99.90;;;;;;5051807;28;20094;-75
2021/08/26 00:35:35;;;;;;;4.05;3.33;;;14.30;99.90;;;;;;5034486;28;20047;-73
2021/08/26 00:38:01;;;;;;;9.75;3.67;;;14.40;99.90;;;;;;5031839;28;20053;-73
2021/08/26 00:40:29;;;;;;;7.82;3.40;;;14.40;99.90;;;;;;5050765;28;20049;-75
2021/08/26 00:42:58;;;;;;;8.40;5.57;;;14.40;99.90;;;;;;5054888;28;20079;-74
2021/08/26 00:45:24;;;;;;;6.00;3.97;;;14.40;99.90;;;;;;5055442;28;20390;-74
2021/08/26 00:47:51;;;;;;;6.28;3.88;;;14.40;99.90;;;;;;5055553;28;20051;-74
2021/08/26 00:50:18;;;;;;;6.95;4.75;;;14.40;99.90;;;;;;5055113;28;20456;-73
2021/08/26 00:52:46;;;;;;;8.13;5.03;;;14.50;99.90;;;;;;5051843;28;20045;-74
2021/08/26 00:55:14;;;;;;;8.18;3.78;;;14.50;99.90;;;;;;5055107;28;20529;-73
2021/08/26 00:57:42;;;;;;;8.23;3.92;;;14.50;99.90;;;;;;5055002;28;20136;-73
2021/08/26 01:00:11;;;;;;;8.77;4.95;;;14.40;99.90;;;;;;5054300;28;20045;-74
2021/08/26 01:02:45;;;;;;;6.80;3.38;;;14.40;99.90;;;;;;5054594;28;20045;-74
2021/08/26 01:05:18;;;;;;;3.92;3.17;;;14.50;99.90;;;;;;5054513;28;20044;-72
2021/08/26 01:07:48;;;;;;;6.93;4.78;;;14.50;99.90;;;;;;5054633;28;20406;-72
2021/08/26 01:10:16;;;;;;;5.53;3.15;;;14.40;99.90;;;;;;5053588;28;20044;-73
2021/08/26 01:12:47;;;;;;;8.25;4.20;;;14.40;99.90;;;;;;5053912;28;20075;-73
2021/08/26 01:15:14;;;;;;;7.45;3.33;;;14.40;99.90;;;;;;5054851;28;20505;-74
2021/08/26 01:17:46;;;;;;;6.50;3.30;;;14.40;99.90;;;;;;5054790;28;20134;-73
2021/08/26 01:20:14;;;;;;;7.28;4.35;;;14.40;99.90;;;;;;5054345;28;20049;-74
2021/08/26 01:22:41;;;;;;;6.93;3.42;;;14.40;99.90;;;;;;5054639;28;20106;-73
2021/08/26 01:25:10;;;;;;;7.53;3.33;;;14.40;99.90;;;;;;5054321;28;20049;-74
2021/08/26 01:27:42;;;;;;;4.55;2.97;;;14.40;99.90;;;;;;5035571;28;20123;-74
2021/08/26 01:30:15;;;;;;;6.13;3.28;;;14.40;99.90;;;;;;5051537;28;20061;-74
2021/08/26 01:32:43;;;;;;;8.50;4.07;;;14.40;99.90;;;;;;5051912;28;20152;-73
2021/08/26 01:35:11;;;;;;;7.40;5.22;;;14.30;99.90;;;;;;5036506;28;20041;-73
2021/08/26 01:37:38;;;;;;;8.68;3.30;;;14.30;99.90;;;;;;5053837;28;20452;-74
2021/08/26 01:40:07;;;;;;;4.82;3.53;;;14.40;99.90;;;;;;5053102;28;20287;-74
2021/08/26 01:42:34;;;;;;;11.45;5.90;;;14.40;99.90;;;;;;5053985;28;20225;-74
2021/08/26 01:45:03;;;;;;;7.80;3.55;;;14.40;99.90;;;;;;5045324;28;20513;-73
2021/08/26 01:47:30;;;;;;;10.90;4.07;;;14.40;99.90;;;;;;5043067;28;20409;-73
2021/08/26 01:49:58;;;;;;;7.85;3.97;;;14.30;99.90;;;;;;5053491;28;20048;-74
2021/08/26 01:52:27;;;;;;;10.45;3.63;;;14.30;99.90;;;;;;5052064;28;20049;-73
2021/08/26 01:54:55;;;;;;;8.27;3.33;;;14.30;99.90;;;;;;5053766;28;20417;-74
2021/08/26 01:57:23;;;;;;;9.93;4.30;;;14.30;99.90;;;;;;5054117;28;20048;-75
2021/08/26 01:59:50;;;;;;;7.18;3.92;;;14.30;99.90;;;;;;5053792;28;20044;-73
2021/08/26 02:02:18;;;;;;;6.97;3.58;;;14.40;99.90;;;;;;5036772;28;20490;-73
2021/08/26 02:04:45;;;;;;;6.75;3.58;;;14.40;99.90;;;;;;5033569;28;20046;-73
2021/08/26 02:07:12;;;;;;;10.35;3.90;;;14.40;99.90;;;;;;5033742;28;20421;-74
2021/08/26 02:09:39;;;;;;;14.32;4.18;;;14.30;99.90;;;;;;5032134;28;20473;-75
2021/08/26 02:12:06;;;;;;;25.92;4.13;;;14.30;99.90;;;;;;5045232;28;20118;-74
2021/08/26 02:14:32;;;;;;;11.82;4.13;;;14.30;99.90;;;;;;5040266;28;20076;-74
2021/08/26 02:16:59;;;;;;;9.80;3.53;;;14.30;99.90;;;;;;5032751;28;20096;-75
2021/08/26 02:19:27;;;;;;;12.45;5.07;;;14.20;99.90;;;;;;5032208;28;20042;-74
2021/08/26 02:21:54;;;;;;;10.07;3.65;;;14.30;99.90;;;;;;5032245;28;20050;-75
2021/08/26 02:24:20;;;;;;;7.97;3.70;;;14.30;99.90;;;;;;5052348;28;20102;-74
2021/08/26 02:26:47;;;;;;;8.40;3.65;;;14.30;99.90;;;;;;5052247;28;20520;-74
2021/08/26 02:29:13;;;;;;;7.97;4.25;;;14.30;99.90;;;;;;5051183;28;20489;-74
2021/08/26 02:31:40;;;;;;;10.25;4.25;;;14.30;99.90;;;;;;5052182;28;20103;-73
2021/08/26 02:34:07;;;;;;;8.15;4.28;;;14.30;99.90;;;;;;5052442;28;20057;-74
2021/08/26 02:36:35;;;;;;;8.13;3.92;;;14.30;99.90;;;;;;5043882;28;20049;-74
2021/08/26 02:39:01;;;;;;;10.50;3.50;;;14.30;99.90;;;;;;5032124;28;20115;-74
2021/08/26 02:41:28;;;;;;;10.00;4.45;;;14.30;99.90;;;;;;5041952;28;20693;-75
2021/08/26 02:43:55;;;;;;;9.50;3.35;;;14.30;99.90;;;;;;5052116;28;20464;-75
2021/08/26 02:46:21;;;;;;;8.07;3.92;;;14.30;99.90;;;;;;5042540;28;20045;-74
2021/08/26 02:48:48;;;;;;;13.20;4.40;;;14.30;99.90;;;;;;5048580;28;20493;-74
2021/08/26 02:51:14;;;;;;;7.30;4.55;;;14.30;99.90;;;;;;5051568;28;20037;-74
2021/08/26 02:53:42;;;;;;;11.43;4.47;;;14.30;99.90;;;;;;5052220;28;20099;-74
2021/08/26 02:56:09;;;;;;;13.35;3.72;;;14.30;99.90;;;;;;5051955;28;20493;-75
2021/08/26 02:58:36;;;;;;;14.77;4.47;;;14.30;99.90;;;;;;5070666;28;20497;-73
2021/08/26 03:01:02;;;;;;;11.75;3.78;;;14.30;99.90;;;;;;5071784;28;20040;-73
2021/08/26 03:03:29;;;;;;;9.15;3.95;;;14.30;99.90;;;;;;5062197;28;20190;-73
2021/08/26 03:05:56;;;;;;;8.38;3.78;;;14.30;99.90;;;;;;5036828;28;20544;-73
2021/08/26 03:08:22;;;;;;;11.07;4.45;;;14.30;99.90;;;;;;5048021;28;20046;-73
2021/08/26 03:10:50;;;;;;;8.15;3.78;;;14.30;99.90;;;;;;5039232;28;20571;-73
2021/08/26 03:13:17;;;;;;;9.18;4.07;;;14.30;99.90;;;;;;5051181;28;20103;-73
2021/08/26 03:15:44;;;;;;;9.85;4.15;;;14.30;99.90;;;;;;5051435;28;20555;-73
2021/08/26 03:18:10;;;;;;;10.50;3.90;;;14.20;99.90;;;;;;5051539;28;20071;-75
2021/08/26 03:20:39;;;;;;;12.10;5.32;;;14.20;99.90;;;;;;5051181;28;20571;-72
2021/08/26 03:23:05;;;;;;;12.27;5.35;;;14.20;99.90;;;;;;5051766;28;20422;-74
2021/08/26 03:25:32;;;;;;;20.20;5.32;;;14.30;99.90;;;;;;5049816;28;20041;-74
2021/08/26 03:28:00;;;;;;;12.63;4.68;;;14.20;99.90;;;;;;5051470;28;20099;-73
2021/08/26 03:30:27;;;;;;;12.55;4.40;;;14.30;99.90;;;;;;5050924;28;20045;-73
2021/08/26 03:32:54;;;;;;;13.90;6.05;;;14.20;99.90;;;;;;5051154;28;20098;-74
2021/08/26 03:35:22;;;;;;;10.85;5.70;;;14.20;99.90;;;;;;5051519;28;20045;-74
2021/08/26 03:37:48;;;;;;;13.60;4.97;;;14.20;99.90;;;;;;5047662;28;20049;-76
2021/08/26 03:40:15;;;;;;;15.75;5.60;;;14.10;99.90;;;;;;5045146;28;20103;-74
2021/08/26 03:42:42;;;;;;;14.00;5.65;;;14.10;99.90;;;;;;5041284;28;20049;-73
2021/08/26 03:45:11;;;;;;;10.90;5.97;;;14.10;99.90;;;;;;5050358;28;20091;-73
2021/08/26 03:47:38;;;;;;;10.50;4.70;;;14.10;99.90;;;;;;5051003;28;20041;-78
2021/08/26 03:50:05;;;;;;;16.17;5.45;;;14.20;99.90;;;;;;5050235;28;20119;-79
2021/08/26 03:52:32;;;;;;;12.55;6.15;;;14.20;99.90;;;;;;5051455;28;20045;-72
2021/08/26 03:54:59;;;;;;;9.57;4.75;;;14.10;99.90;;;;;;5050864;28;20110;-70
2021/08/26 03:57:25;;;;;;;13.15;5.80;;;14.10;99.90;;;;;;5051048;28;20045;-71
2021/08/26 03:59:52;;;;;;;9.63;4.30;;;14.10;99.90;;;;;;5034282;28;20104;-72
2021/08/26 04:02:20;;;;;;;18.73;5.82;;;14.10;99.90;;;;;;5036905;28;20053;-69
2021/08/26 04:04:46;;;;;;;16.27;6.55;;;14.10;99.90;;;;;;5051089;28;20053;-70
2021/08/26 04:07:15;;;;;;;15.60;5.30;;;14.10;99.90;;;;;;5035389;28;20049;-70
2021/08/26 04:09:41;;;;;;;24.75;5.93;;;14.10;99.90;;;;;;5050903;28;20041;-70
2021/08/26 04:12:08;;;;;;;10.80;5.32;;;14.10;99.90;;;;;;5050953;28;20049;-68
2021/08/26 04:14:35;;;;;;;14.40;5.68;;;14.10;99.90;;;;;;5042631;28;20050;-68
2021/08/26 04:17:01;;;;;;;14.13;6.53;;;14.10;99.90;;;;;;5053525;28;20099;-68
2021/08/26 04:19:29;;;;;;;16.90;6.03;;;14.10;99.90;;;;;;5054397;28;20049;-69
2021/08/26 04:21:56;;;;;;;16.65;6.13;;;14.00;99.90;;;;;;5036976;28;20103;-69
2021/08/26 04:24:24;;;;;;;24.98;6.53;;;14.10;99.90;;;;;;5037097;28;20045;-70
2021/08/26 04:26:51;;;;;;;14.60;6.40;;;14.10;99.90;;;;;;5053967;28;20440;-70
2021/08/26 04:29:17;;;;;;;10.93;4.82;;;14.10;99.90;;;;;;5054665;28;20475;-72
2021/08/26 04:31:44;;;;;;;15.52;5.88;;;14.10;99.90;;;;;;5054445;28;20102;-71
2021/08/26 04:34:10;;;;;;;13.38;4.85;;;14.10;99.90;;;;;;5054660;28;20464;-71
2021/08/26 04:36:38;;;;;;;11.98;5.82;;;14.20;99.90;;;;;;5052706;28;20079;-71
2021/08/26 04:39:05;;;;;;;10.85;4.68;;;14.10;99.90;;;;;;5053500;28;20497;-71
2021/08/26 04:41:31;;;;;;;12.93;5.35;;;14.10;99.90;;;;;;5051746;28;20107;-70
2021/08/26 04:43:58;;;;;;;12.63;5.05;;;14.00;99.90;;;;;;5034695;28;20091;-72
2021/08/26 04:46:25;;;;;;;14.57;6.15;;;14.00;99.90;;;;;;5043595;28;20463;-74
2021/08/26 04:48:51;;;;;;;13.10;4.85;;;14.10;99.90;;;;;;5053690;28;20558;-73
2021/08/26 04:51:18;;;;;;;10.15;5.00;;;14.10;99.90;;;;;;5050439;28;20429;-75
2021/08/26 04:53:46;;;;;;;13.35;6.65;;;14.00;99.90;;;;;;5046573;28;20045;-73
2021/08/26 04:56:13;;;;;;;15.10;4.45;;;14.10;99.90;;;;;;5037693;28;20079;-73
2021/08/26 04:58:40;;;;;;;9.63;5.88;;;14.10;99.90;;;;;;5053857;28;20490;-73
2021/08/26 05:01:06;;;;;;;13.23;5.15;;;14.10;99.90;;;;;;5049073;28;20504;-73
2021/08/26 05:03:33;;;;;;;11.85;4.43;;;14.20;99.90;;;;;;5034311;28;20556;-71
2021/08/26 05:06:02;;;;;;;9.07;4.57;;;14.30;99.90;;;;;;5045120;28;20212;-76
2021/08/26 05:08:28;;;;;;;14.20;5.28;;;14.30;99.90;;;;;;5052392;28;20045;-74
2021/08/26 05:10:56;;;;;;;14.20;5.22;;;14.30;99.90;;;;;;5046875;28;20049;-69
2021/08/26 05:13:23;;;;;;;9.43;4.72;;;14.30;99.90;;;;;;5042407;28;20068;-73
2021/08/26 05:15:49;;;;;;;16.38;5.85;;;14.30;99.90;;;;;;5038162;28;20049;-68
2021/08/26 05:18:17;;;;;;;9.55;5.07;;;14.30;99.90;;;;;;5039818;28;20180;-67
2021/08/26 05:20:44;;;;;;;10.05;4.50;;;14.30;99.90;;;;;;5041839;28;21507;-69
2021/08/26 05:23:10;;;;;;;9.25;4.78;;;14.30;99.90;;;;;;5039620;28;20049;-69
2021/08/26 05:25:37;;;;;;;10.32;5.22;;;14.30;99.90;;;;;;5037437;28;20099;-69
2021/08/26 05:28:05;;;;;;;11.50;4.90;;;14.40;99.90;;;;;;5039492;28;20681;-69
2021/08/26 05:30:32;;;;;;;11.82;4.65;;;14.40;99.90;;;;;;5038546;28;20114;-66
2021/08/26 05:32:58;;;;;;;16.95;4.93;;;14.50;99.90;;;;;;5038148;28;20077;-71
2021/08/26 05:35:25;;;;;;;16.42;6.35;;;14.60;99.90;;;;;;5039362;28;20131;-71
2021/08/26 05:37:51;;;;;;;7.57;4.60;;;14.70;99.90;;;;;;5040117;28;20045;-70
2021/08/26 05:40:18;;;;;;;11.23;5.28;;;14.90;99.90;;;;;;5040400;28;20413;-70
2021/08/26 05:42:45;;;;;;;14.90;5.53;;;15.00;99.90;;;;;;5038851;28;20045;-71
2021/08/26 05:45:13;;;;;;;10.38;4.43;;;15.10;99.90;;;;;;5039553;28;20056;-72
2021/08/26 05:47:39;;;;;;;17.83;7.38;;;15.20;99.90;;;;;;5040116;28;20452;-75
2021/08/26 05:50:07;;;;;;;11.98;6.03;;;15.30;99.90;;;;;;5039063;28;20041;-76
2021/08/26 05:52:34;;;;;;;10.63;5.55;;;15.40;99.90;;;;;;5040228;28;20107;-76
2021/08/26 05:55:00;;;;;;;13.98;6.13;;;15.30;99.90;;;;;;5039834;28;20386;-75
2021/08/26 05:57:27;;;;;;;12.45;5.57;;;15.30;99.90;;;;;;5040199;28;20040;-76
2021/08/26 05:59:54;;;;;;;10.32;5.38;;;15.20;99.90;;;;;;5041217;28;20452;-75
2021/08/26 06:02:21;;;;;;;13.95;6.57;;;15.20;99.90;;;;;;5059829;28;20049;-75
2021/08/26 06:04:48;;;;;;;11.57;5.20;;;15.20;99.90;;;;;;5057995;28;20071;-70
2021/08/26 06:07:15;;;;;;;10.65;6.07;;;15.10;99.90;;;;;;5042911;28;20053;-69
2021/08/26 06:09:41;;;;;;;17.85;6.93;;;15.10;99.90;;;;;;5043357;28;20099;-69
2021/08/26 06:12:08;;;;;;;18.83;7.65;;;15.10;99.90;;;;;;5042825;28;20049;-73
2021/08/26 06:14:35;;;;;;;15.07;6.90;;;15.10;99.90;;;;;;5039413;28;20091;-73
2021/08/26 06:17:01;;;;;;;9.40;5.47;;;15.10;99.90;;;;;;5038849;28;20045;-74
2021/08/26 06:19:29;;;;;;;17.30;5.03;;;15.20;99.90;;;;;;5039253;28;20037;-75
2021/08/26 06:21:56;;;;;;;22.20;10.85;;;15.20;99.90;;;;;;5040904;28;20045;-74
2021/08/26 06:24:22;;;;;;;17.98;9.75;;;15.20;99.90;;;;;;5038584;28;20049;-72
2021/08/26 06:26:49;;;;;;;15.70;8.93;;;15.20;99.90;;;;;;5040059;28;20041;-71
2021/08/26 06:29:16;;;;;;;14.30;6.20;;;15.20;99.90;;;;;;5037674;28;20485;-72
2021/08/26 06:31:44;;;;;;;15.25;9.07;;;15.20;99.90;;;;;;5038705;28;20041;-73
2021/08/26 06:34:11;;;;;;;13.55;7.03;;;15.20;99.90;;;;;;5039374;28;20059;-73
2021/08/26 06:36:39;;;;;;;16.52;7.65;;;15.30;99.90;;;;;;5039347;28;20053;-74
2021/08/26 06:39:06;;;;;;;18.45;8.38;;;15.30;99.90;;;;;;5036702;28;20493;-72
2021/08/26 06:41:32;;;;;;;14.77;7.15;;;15.30;99.90;;;;;;5041000;28;20052;-72
2021/08/26 06:43:59;;;;;;;20.23;8.02;;;15.30;99.90;;;;;;5039813;28;20044;-75
2021/08/26 06:46:26;;;;;;;13.07;6.30;;;15.40;99.90;;;;;;5042682;28;20049;-73
2021/08/26 06:48:54;;;;;;;9.80;6.20;;;15.30;99.90;;;;;;5051920;28;20092;-75
2021/08/26 06:51:21;;;;;;;13.82;5.57;;;15.20;99.90;;;;;;5040736;28;20049;-74
2021/08/26 06:53:49;;;;;;;11.32;5.50;;;15.30;99.90;;;;;;5050419;28;20140;-73
2021/08/26 06:56:16;;;;;;;16.55;8.93;;;15.30;99.90;;;;;;5053641;28;20045;-72
2021/08/26 06:58:43;;;;;;;17.25;9.70;;;15.50;99.90;;;;;;5053315;28;20052;-73
2021/08/26 07:01:10;;;;;;;16.90;7.10;;;15.70;99.90;;;;;;5037818;28;20091;-74
2021/08/26 07:03:37;;;;;;;19.77;7.20;;;15.90;99.90;;;;;;5033864;28;20052;-74
2021/08/26 07:06:03;;;;;;;10.52;5.90;;;15.90;99.90;;;;;;5041638;28;20560;-75
2021/08/26 07:08:30;;;;;;;7.78;5.45;;;16.10;99.90;;;;;;5035521;28;20527;-74
2021/08/26 07:10:58;;;;;;;12.75;6.68;;;16.20;99.90;;;;;;5046464;28;20049;-72
2021/08/26 07:13:24;;;;;;;11.13;4.93;;;16.40;99.90;;;;;;5050899;28;20558;-70
2021/08/26 07:15:51;;;;;;;9.40;5.00;;;17.00;99.90;;;;;;5052631;28;20053;-73
2021/08/26 07:18:19;;;;;;;11.30;4.40;;;17.90;99.90;;;;;;5050977;28;20052;-72
2021/08/26 07:20:46;;;;;;;16.88;7.45;;;18.70;99.90;;;;;;5037682;28;20045;-72
2021/08/26 07:23:13;;;;;;;13.75;4.68;;;19.40;99.90;;;;;;5032569;28;20103;-73
2021/08/26 07:25:39;;;;;;;12.15;5.40;;;19.70;99.90;;;;;;5032829;28;20045;-72
2021/08/26 07:28:07;;;;;;;9.82;5.13;;;19.70;99.90;;;;;;5032185;28;20099;-73
2021/08/26 07:30:34;;;;;;;6.63;3.25;;;19.60;99.90;;;;;;5039641;28;20041;-70
2021/08/26 07:33:00;;;;;;;14.30;9.50;;;18.90;99.90;;;;;;5050917;28;20056;-74
2021/08/26 07:35:27;;;;;;;6.53;4.25;;;18.40;99.90;;;;;;5054234;28;20080;-74
2021/08/26 07:37:53;;;;;;;7.90;4.30;;;18.20;99.90;;;;;;5057300;28;20075;-74
2021/08/26 07:40:20;;;;;;;8.50;4.28;;;18.10;99.90;;;;;;5047550;28;20092;-73
2021/08/26 07:42:47;;;;;;;7.78;3.65;;;18.10;99.90;;;;;;5038538;28;20054;-70
2021/08/26 07:45:15;;;;;;;6.68;4.55;;;18.40;99.90;;;;;;5037332;28;20053;-69
2021/08/26 07:47:41;;;;;;;7.07;3.47;;;18.60;99.90;;;;;;5044936;28;20045;-72
2021/08/26 07:50:10;;;;;;;9.80;3.17;;;19.30;99.90;;;;;;5044786;28;20049;-70
2021/08/26 07:52:36;;;;;;;8.93;2.47;;;19.90;99.90;;;;;;5036238;28;20060;-70
2021/08/26 07:55:04;;;;;;;5.72;2.15;;;20.00;99.90;;;;;;5036285;28;20079;-70
2021/08/26 07:57:31;;;;;;;6.82;2.78;;;20.20;99.90;;;;;;5040769;28;20040;-70
2021/08/26 07:59:58;;;;;;;6.20;3.03;;;20.60;99.90;;;;;;5054376;28;20048;-73
2021/08/26 08:02:27;;;;;;;7.50;3.42;;;21.80;99.90;;;;;;5055558;28;20095;-72
2021/08/26 08:04:53;;;;;;;5.28;2.60;;;22.50;99.90;;;;;;5055124;28;20444;-72
2021/08/26 08:07:20;;;;;;;5.15;2.30;;;22.20;99.90;;;;;;5055576;28;20048;-72
2021/08/26 08:09:46;;;;;;;4.75;1.90;;;22.10;99.90;;;;;;5054371;28;20521;-75
2021/08/26 08:12:13;;;;;;;5.95;1.83;;;21.90;99.90;;;;;;5050542;28;20065;-69
2021/08/26 08:14:42;;;;;;;3.92;2.22;;;22.40;99.90;;;;;;5052094;28;20444;-73
2021/08/26 08:17:10;;;;;;;6.75;3.30;;;22.50;99.90;;;;;;5035276;28;20080;-76
2021/08/26 08:19:38;;;;;;;2.45;1.70;;;22.90;99.90;;;;;;5042854;28;20519;-74
2021/08/26 08:22:05;;;;;;;6.47;2.85;;;22.60;99.90;;;;;;5035463;28;20050;-75
2021/08/26 08:24:31;;;;;;;4.28;2.42;;;22.10;99.90;;;;;;5034721;28;20099;-74
2021/08/26 08:26:58;;;;;;;5.38;3.45;;;21.30;99.90;;;;;;5051275;28;20045;-73
2021/08/26 08:29:25;;;;;;;3.40;1.65;;;20.90;99.90;;;;;;5038576;28;20049;-75
2021/08/26 08:31:51;;;;;;;3.50;1.42;;;21.30;99.90;;;;;;5054896;28;20052;-68
2021/08/26 08:34:18;;;;;;;5.00;1.20;;;22.70;99.90;;;;;;5054355;28;20053;-69
2021/08/26 08:36:46;;;;;;;2.85;1.23;;;23.30;99.90;;;;;;5054157;28;20045;-71
2021/08/26 08:39:13;;;;;;;3.63;2.13;;;23.10;98.50;;;;;;5044801;28;20099;-70
2021/08/26 08:41:39;;;;;;;6.88;2.33;;;22.60;99.90;;;;;;5052877;28;20095;-72
2021/08/26 08:44:06;;;;;;;2.67;1.73;;;21.80;99.90;;;;;;5042507;28;20049;-70
2021/08/26 08:46:34;;;;;;;5.13;2.75;;;21.30;99.90;;;;;;5054608;28;20052;-72
2021/08/26 08:49:03;;;;;;;10.05;5.32;;;20.90;99.90;;;;;;5053896;28;20409;-68
2021/08/26 08:51:31;;;;;;;14.00;6.65;;;20.60;99.90;;;;;;5054679;28;20468;-75
2021/08/26 08:53:59;;;;;;;5.55;3.72;;;20.50;99.90;;;;;;5050976;28;20493;-72
2021/08/26 08:56:27;;;;;;;13.00;5.93;;;20.20;99.90;;;;;;5048143;28;20453;-74
2021/08/26 08:58:57;;;;;;;3.38;1.60;;;20.10;99.90;;;;;;5035201;28;20041;-74
2021/08/26 09:01:24;;;;;;;9.45;4.45;;;20.10;99.90;;;;;;5044217;28;20102;-75
2021/08/26 09:03:50;;;;;;;4.75;1.90;;;20.80;99.90;;;;;;5045707;28;20099;-75
2021/08/26 09:06:17;;;;;;;3.25;1.30;;;22.40;99.90;;;;;;5046485;28;20045;-77
2021/08/26 09:09:03;;;;;;;5.65;1.67;;;23.80;98.50;;;;;;5040929;28;20456;-76
2021/08/26 09:11:30;;;;;;;3.70;1.20;;;25.10;94.10;;;;;;5035166;28;20118;-74
2021/08/26 09:13:56;;;;;;;3.13;1.23;;;26.60;87.10;;;;;;5035334;28;20494;-77
2021/08/26 09:16:36;;;;;;;4.13;2.15;;;26.00;80.20;;;;;;5035035;28;20045;-73
2021/08/26 09:19:17;;;;;;;4.03;1.73;;;24.90;84.00;;;;;;5045212;28;20106;-74
2021/08/26 09:21:43;;;;;;;5.18;2.95;;;24.00;83.70;;;;;;5069790;28;20516;-74
2021/08/26 09:24:11;;;;;;;1.98;1.25;;;23.30;85.90;;;;;;5055569;28;20088;-73
2021/08/26 09:26:41;;;;;;;3.80;2.13;;;22.30;91.30;;;;;;5055202;28;20041;-73
2021/08/26 09:29:10;;;;;;;2.78;1.10;;;21.70;93.90;;;;;;5060125;28;20094;-74
2021/08/26 09:31:38;;;;;;;1.20;1.10;;;20.80;97.70;;;;;;5054550;28;20055;-72
2021/08/26 09:34:06;;;;;;;13.70;5.88;;;19.90;99.90;;;;;;5053173;28;20073;-68
2021/08/26 09:36:36;;;;;;;4.30;2.65;;;18.80;99.90;;;;;;5040065;28;20057;-74
2021/08/26 09:39:05;;;;;;;7.07;3.13;;;18.10;99.90;;;;;;5035677;28;20075;-75
2021/08/26 09:41:43;;;;;;;12.90;7.95;;;17.90;99.90;;;;;;5037408;28;20042;-76
2021/08/26 09:44:11;;;;;;;30.40;17.83;;;17.50;99.90;;;;;;5043434;28;20612;-77
2021/08/26 09:46:38;;;;;;;5.97;3.42;;;17.80;99.90;;;;;;5054041;28;20076;-73
2021/08/26 09:49:06;;;;;;;11.85;5.75;;;18.90;99.90;;;;;;5045228;28;20456;-75
2021/08/26 09:51:33;;;;;;;4.13;1.13;;;20.80;99.90;;;;;;5043536;28;20099;-72
2021/08/26 09:54:00;;;;;;;5.75;1.67;;;22.10;99.90;;;;;;5034769;28;20057;-75
2021/08/26 09:56:40;;;;;;;1.92;1.45;;;22.20;99.90;;;;;;5035371;28;20046;-71
2021/08/26 09:59:07;;;;;;;5.85;1.30;;;23.40;99.90;;;;;;5036337;28;20049;-72
2021/08/26 10:01:37;;;;;;;1.50;1.00;;;25.00;99.90;;;;;;5043491;28;20045;-71
2021/08/26 10:04:05;;;;;;;4.43;1.20;;;25.20;94.20;;;;;;5045436;28;20037;-73
2021/08/26 10:06:32;;;;;;;7.97;5.25;;;26.10;95.00;;;;;;5034645;28;20045;-72
2021/08/26 10:08:59;;;;;;;2.45;1.55;;;27.00;91.10;;;;;;5033371;28;20050;-72
2021/08/26 10:11:28;;;;;;;9.70;5.07;;;27.40;84.60;;;;;;5033987;28;20490;-74
2021/08/26 10:13:57;;;;;;;3.60;2.13;;;26.10;87.80;;;;;;5036620;28;20053;-74
2021/08/26 10:16:25;;;;;;;6.82;2.90;;;26.30;83.70;;;;;;5036240;28;20053;-76
2021/08/26 10:18:52;;;;;;;1.25;0.57;;;25.90;88.60;;;;;;5016416;28;20085;-72
2021/08/26 10:21:19;;;;;;;3.75;2.28;;;25.00;86.60;;;;;;5046393;28;20053;-72
2021/08/26 10:23:47;;;;;;;2.08;1.88;;;24.50;91.40;;;;;;5053687;28;20055;-72
2021/08/26 10:26:16;;;;;;;4.90;1.60;;;24.30;92.00;;;;;;5052766;28;20129;-73
2021/08/26 10:28:44;;;;;;;8.88;4.45;;;24.20;93.10;;;;;;5037950;28;20049;-73
2021/08/26 10:31:29;;;;;;;4.45;2.47;;;24.90;92.50;;;;;;5034140;28;20049;-74
2021/08/26 10:34:09;;;;;;;1.20;0.90;;;25.40;89.50;;;;;;5053684;28;20059;-74
2021/08/26 10:36:44;;;;;;;2.63;1.05;;;25.50;88.20;;;;;;5054186;28;20493;-73
2021/08/26 10:39:27;;;;;;;3.28;0.90;;;25.20;90.60;;;;;;5042268;28;20045;-73
2021/08/26 10:41:54;;;;;;;1.17;0.90;;;25.10;88.90;;;;;;5053241;28;20528;-72
2021/08/26 10:44:21;;;;;;;1.60;0.82;;;24.00;89.50;;;;;;5044372;28;20426;-73
2021/08/26 10:46:51;;;;;;;3.17;1.35;;;24.10;91.30;;;;;;5038735;28;20045;-75
2021/08/26 10:49:18;;;;;;;3.75;2.13;;;25.10;90.30;;;;;;5053108;28;20045;-72
2021/08/26 10:51:47;;;;;;;1.65;1.48;;;26.20;86.40;;;;;;5053457;28;20079;-74
2021/08/26 10:54:31;;;;;;;3.00;1.70;;;27.00;83.80;;;;;;5056864;28;20475;-74
2021/08/26 10:57:19;;;;;;;2.13;1.73;;;26.70;77.80;;;;;;5058367;28;20055;-73
2021/08/26 10:59:46;;;;;;;3.25;2.58;;;27.40;80.20;;;;;;5054065;28;20075;-75
2021/08/26 11:02:40;;;;;;;1.13;0.90;;;28.10;74.60;;;;;;5054346;28;20056;-73
2021/08/26 11:05:32;;;;;;;3.03;0.90;;;27.80;70.70;;;;;;5053058;28;20473;-74
2021/08/26 11:07:59;;;;;;;2.03;0.85;;;28.10;70.20;;;;;;5053457;28;20521;-73
2021/08/26 11:10:27;;;;;;;0.80;0.50;;;27.10;70.10;;;;;;5047437;28;20052;-69
2021/08/26 11:13:17;;;;;;;0.57;0.55;;;26.40;70.70;;;;;;5052569;28;20098;-70
2021/08/26 11:15:45;;;;;;;2.88;0.88;;;25.70;72.60;;;;;;5047236;28;20052;-75
2021/08/26 11:18:28;;;;;;;2.08;0.70;;;25.80;74.60;;;;;;5043900;28;20512;-73
2021/08/26 11:20:55;;;;;;;1.10;0.90;;;25.40;73.80;;;;;;5052087;28;20044;-74
2021/08/26 11:23:46;;;;;;;2.67;1.88;;;25.10;75.30;;;;;;5062596;28;20045;-73
2021/08/26 11:26:30;;;;;;;;;;;25.50;76.60;;;;;;5038230;28;20057;-74
2021/08/26 11:29:33;;;;;;;2.63;1.88;;;26.40;75.70;;;;;;5038044;28;19920;-68
2021/08/26 11:32:01;;;;;;;3.13;2.65;;;27.20;69.80;;;;;;5052329;28;20131;-74
2021/08/26 11:34:30;;;;;;;3.28;2.42;;;26.10;69.90;;;;;;5053031;28;20047;-74
2021/08/26 11:36:58;;;;;;;3.13;0.73;;;24.80;72.80;;;;;;5049096;28;20053;-76
2021/08/26 11:39:25;;;;;;;1.20;1.00;;;23.20;80.80;;;;;;5051103;28;20080;-74
2021/08/26 11:41:52;;;;;;;2.97;1.67;;;22.00;89.40;;;;;;5051700;28;20130;-73
2021/08/26 11:44:19;;;;;;;1.20;0.65;;;21.50;93.10;;;;;;5043940;28;20054;-73
2021/08/26 11:46:49;;;;;;;8.70;3.65;;;20.90;99.00;;;;;;5052548;28;20048;-73
2021/08/26 11:49:15;;;;;;;5.00;2.28;;;20.50;99.90;;;;;;5050737;28;20068;-70
2021/08/26 11:51:42;;;;;;;3.30;1.75;;;20.20;99.90;;;;;;5050084;28;20052;-72
2021/08/26 11:54:18;;;;;;;3.95;1.80;;;20.60;99.90;;;;;;5046791;28;20049;-76
2021/08/26 11:56:50;;;;;;;2.95;1.55;;;20.90;99.90;;;;;;5047669;28;20053;-73
2021/08/26 11:59:41;;;;;;;4.13;2.47;;;21.00;99.90;;;;;;5041198;28;20056;-76
2021/08/26 12:02:20;;;;;;;2.38;1.02;;;21.40;99.90;;;;;;5049315;28;20045;-72
2021/08/26 12:04:51;;;;;;;2.15;0.75;;;22.80;99.90;;;;;;5031294;28;20144;-71
2021/08/26 12:07:26;;;;;;;1.43;0.70;;;24.60;99.90;;;;;;5031837;28;20144;-70
2021/08/26 12:09:53;;;;;;;2.38;1.58;;;25.40;93.20;;;;;;5033734;28;20292;-74
2021/08/26 12:12:19;;;;;;;2.42;1.52;;;25.30;92.80;;;;;;5034436;28;20049;-74
2021/08/26 12:14:46;;;;;;;2.38;0.90;;;24.30;93.20;;;;;;5049193;28;20053;-80
2021/08/26 12:17:17;;;;;;;2.80;2.17;;;23.10;95.60;;;;;;5033958;28;20049;-78
2021/08/26 12:19:47;;;;;;;2.70;1.60;;;22.40;96.40;;;;;;5045737;28;20041;-78
2021/08/26 12:22:15;;;;;;;2.50;1.67;;;21.60;99.20;;;;;;5053533;28;20049;-73
2021/08/26 12:24:53;;;;;;;0.95;0.60;;;21.30;99.90;;;;;;5053966;28;20106;-73
2021/08/26 12:27:20;;;;;;;8.35;2.85;;;21.10;99.90;;;;;;5044908;28;20128;-74
2021/08/26 12:29:51;;;;;;;3.72;1.88;;;21.10;99.90;;;;;;5038452;28;20050;-77
2021/08/26 12:32:35;;;;;;;5.38;3.17;;;20.80;99.90;;;;;;5032960;28;20049;-77
2021/08/26 12:35:22;;;;;;;1.50;0.65;;;20.40;99.90;;;;;;5033335;28;20041;-73
2021/08/26 12:38:07;;;;;;;2.55;0.43;;;20.30;99.90;;;;;;5033667;28;20490;-72
2021/08/26 12:40:51;;;;;;;4.68;2.40;;;20.40;99.90;;;;;;5035284;28;20553;-73
2021/08/26 12:43:19;;;;;;;2.40;0.82;;;20.60;99.90;;;;;;5050413;28;20047;-72
2021/08/26 12:45:48;;;;;;;1.90;1.30;;;20.80;99.90;;;;;;5077722;28;20040;-75
2021/08/26 12:48:26;;;;;;;1.17;1.05;;;21.00;99.90;;;;;;5077981;28;20508;-77
2021/08/26 12:51:26;;;;;;;3.42;1.52;;;21.60;99.90;;;;;;5077047;28;20048;-73
2021/08/26 12:54:13;;;;;;;4.05;1.88;;;21.80;99.90;;;;;;5057437;28;20041;-70